createdAt,value
2018-09-15T00:01:58.090Z,90.90
2018-09-15T00:04:26.542Z,91.10
2018-09-15T00:06:54.986Z,91.30
2018-09-15T00:09:23.503Z,91.60
2018-09-15T00:11:52.021Z,91.60
2018-09-15T00:14:20.480Z,91.40
2018-09-15T00:16:48.879Z,91.40
2018-09-15T00:19:17.315Z,91.30
2018-09-15T00:21:45.823Z,91.80
2018-09-15T00:24:14.304Z,91.50
2018-09-15T00:26:42.716Z,91.70
2018-09-15T00:29:11.179Z,91.60
2018-09-15T00:31:39.635Z,91.70
2018-09-15T00:34:08.153Z,91.90
2018-09-15T00:36:36.676Z,92.00
2018-09-15T00:39:08.163Z,92.00
2018-09-15T00:41:36.690Z,91.90
2018-09-15T00:44:05.146Z,92.20
2018-09-15T00:46:33.573Z,92.50
2018-09-15T00:49:02.058Z,92.40
2018-09-15T00:51:30.507Z,92.50
2018-09-15T00:53:59.056Z,92.50
2018-09-15T00:56:27.526Z,92.50
2018-09-15T00:58:55.996Z,92.50
2018-09-15T01:01:24.570Z,92.70
2018-09-15T01:03:52.965Z,92.50
2018-09-15T01:06:21.407Z,92.50
2018-09-15T01:08:49.916Z,92.70
2018-09-15T01:11:18.366Z,92.70
2018-09-15T01:13:46.784Z,92.80
2018-09-15T01:16:15.914Z,93.00
2018-09-15T01:18:44.516Z,93.20
2018-09-15T01:21:13.033Z,93.40
2018-09-15T01:23:41.431Z,93.40
2018-09-15T01:26:10.052Z,93.50
2018-09-15T01:28:39.196Z,93.60
2018-09-15T01:31:07.684Z,93.60
2018-09-15T01:33:36.183Z,93.70
2018-09-15T01:36:04.624Z,93.90
2018-09-15T01:38:33.087Z,93.90
2018-09-15T01:41:01.520Z,94.00
2018-09-15T01:43:29.965Z,93.90
2018-09-15T01:45:58.406Z,93.90
2018-09-15T01:48:26.874Z,93.90
2018-09-15T01:50:55.327Z,94.10
2018-09-15T01:53:23.737Z,93.90
2018-09-15T01:55:52.185Z,94.10
2018-09-15T01:58:20.669Z,94.10
2018-09-15T02:00:49.123Z,94.40
2018-09-15T02:03:17.571Z,94.50
2018-09-15T02:05:46.137Z,94.70
2018-09-15T02:08:14.571Z,94.60
2018-09-15T02:10:43.010Z,94.60
2018-09-15T02:13:11.500Z,94.80
2018-09-15T02:15:39.980Z,94.90
2018-09-15T02:18:08.453Z,94.90
2018-09-15T02:20:37.929Z,95.10
2018-09-15T02:23:06.541Z,95.40
2018-09-15T02:25:35.018Z,95.30
2018-09-15T02:28:03.550Z,95.40
2018-09-15T02:30:32.023Z,95.50
2018-09-15T02:33:00.469Z,95.50
2018-09-15T02:35:28.925Z,95.70
2018-09-15T02:37:57.403Z,95.70
2018-09-15T02:40:25.855Z,95.80
2018-09-15T02:42:54.443Z,95.90
2018-09-15T02:45:22.871Z,96.10
2018-09-15T02:47:51.293Z,96.20
2018-09-15T02:50:19.786Z,96.30
2018-09-15T02:52:48.249Z,96.40
2018-09-15T02:55:16.701Z,96.50
2018-09-15T02:57:45.137Z,96.60
2018-09-15T03:00:13.580Z,96.90
2018-09-15T03:02:42.012Z,97.00
2018-09-15T03:05:10.560Z,97.10
2018-09-15T03:07:39.409Z,97.10
2018-09-15T03:10:07.865Z,97.30
2018-09-15T03:12:36.385Z,97.30
2018-09-15T03:15:05.124Z,97.60
2018-09-15T03:17:33.549Z,97.70
2018-09-15T03:20:02.083Z,97.90
2018-09-15T03:22:30.556Z,98.10
2018-09-15T03:24:59.602Z,98.40
2018-09-15T03:27:28.073Z,98.40
2018-09-15T03:29:56.536Z,98.30
2018-09-15T03:32:25.153Z,98.20
2018-09-15T03:34:53.606Z,98.20
2018-09-15T03:37:22.053Z,98.30
2018-09-15T03:39:50.499Z,98.70
2018-09-15T03:42:18.954Z,99.10
2018-09-15T03:44:47.497Z,99.00
2018-09-15T03:47:15.899Z,99.10
2018-09-15T03:49:44.326Z,99.30
2018-09-15T03:52:12.781Z,99.30
2018-09-15T03:54:41.332Z,99.60
2018-09-15T03:57:09.833Z,99.60
2018-09-15T03:59:38.253Z,99.70
2018-09-15T04:02:06.790Z,99.80
2018-09-15T04:04:35.311Z,99.90
2018-09-15T04:07:03.740Z,99.90
2018-09-15T04:09:32.214Z,99.90
2018-09-15T04:12:00.670Z,99.90
2018-09-15T04:14:29.131Z,99.90
2018-09-15T04:16:57.567Z,99.80
2018-09-15T04:19:26.002Z,99.70
2018-09-15T04:21:54.469Z,99.80
2018-09-15T04:24:22.932Z,99.90
2018-09-15T04:26:51.424Z,99.90
2018-09-15T04:29:19.863Z,99.90
2018-09-15T04:31:48.328Z,99.90
2018-09-15T04:34:16.741Z,99.90
2018-09-15T04:36:45.222Z,99.90
2018-09-15T04:39:13.708Z,99.90
2018-09-15T04:41:42.557Z,99.90
2018-09-15T04:44:10.931Z,99.90
2018-09-15T04:46:39.677Z,99.90
2018-09-15T04:49:08.096Z,99.90
2018-09-15T04:51:36.557Z,99.90
2018-09-15T04:54:05.097Z,99.90
2018-09-15T04:56:33.542Z,99.90
2018-09-15T04:59:01.945Z,99.90
2018-09-15T05:01:30.378Z,99.90
2018-09-15T05:03:58.784Z,99.90
2018-09-15T05:06:27.276Z,99.90
2018-09-15T05:08:55.791Z,99.90
2018-09-15T05:11:24.232Z,99.90
2018-09-15T05:13:52.780Z,99.90
2018-09-15T05:16:21.351Z,99.90
2018-09-15T05:18:49.823Z,99.90
2018-09-15T05:21:18.264Z,99.90
2018-09-15T05:23:46.765Z,99.90
2018-09-15T05:26:15.270Z,99.90
2018-09-15T05:28:43.751Z,99.90
2018-09-15T05:31:12.156Z,99.90
2018-09-15T05:33:40.600Z,99.90
2018-09-15T05:36:09.055Z,99.90
2018-09-15T05:38:37.495Z,99.90
2018-09-15T05:41:05.981Z,99.90
2018-09-15T05:43:34.393Z,99.90
2018-09-15T05:46:02.853Z,99.90
2018-09-15T05:48:31.410Z,99.90
2018-09-15T05:50:59.850Z,99.90
2018-09-15T05:53:28.271Z,99.90
2018-09-15T05:55:56.719Z,99.90
2018-09-15T05:58:25.151Z,99.90
2018-09-15T06:00:54.241Z,99.90
2018-09-15T06:03:22.772Z,99.90
2018-09-15T06:05:51.228Z,99.90
2018-09-15T06:08:19.652Z,99.90
2018-09-15T06:10:48.095Z,99.90
2018-09-15T06:13:16.793Z,99.90
2018-09-15T06:15:45.599Z,99.90
2018-09-15T06:18:14.082Z,99.90
2018-09-15T06:20:42.595Z,99.90
2018-09-15T06:23:11.060Z,99.90
2018-09-15T06:25:40.021Z,99.90
2018-09-15T06:28:08.548Z,99.90
2018-09-15T06:30:37.862Z,99.90
2018-09-15T06:33:06.462Z,99.90
2018-09-15T06:35:35.108Z,99.90
2018-09-15T06:38:04.207Z,99.90
2018-09-15T06:40:33.692Z,99.90
2018-09-15T06:43:02.226Z,99.90
2018-09-15T06:45:30.695Z,99.90
2018-09-15T06:47:59.161Z,99.90
2018-09-15T06:50:27.632Z,99.90
2018-09-15T06:52:56.076Z,99.90
2018-09-15T06:55:24.507Z,99.40
2018-09-15T06:57:52.968Z,98.70
2018-09-15T07:00:21.427Z,98.50
2018-09-15T07:02:49.935Z,99.10
2018-09-15T07:05:18.389Z,99.10
2018-09-15T07:07:46.848Z,98.70
2018-09-15T07:10:15.315Z,98.50
2018-09-15T07:12:43.783Z,98.00
2018-09-15T07:15:12.225Z,97.40
2018-09-15T07:17:40.761Z,97.60
2018-09-15T07:20:09.346Z,96.60
2018-09-15T07:22:37.833Z,97.00
2018-09-15T07:25:06.979Z,97.00
2018-09-15T07:27:36.199Z,95.90
2018-09-15T07:30:16.078Z,95.80
2018-09-15T07:32:44.549Z,95.60
2018-09-15T07:35:12.985Z,95.30
2018-09-15T07:37:41.493Z,94.90
2018-09-15T07:40:10.014Z,94.80
2018-09-15T07:42:38.584Z,95.10
2018-09-15T07:45:07.063Z,94.70
2018-09-15T07:47:35.533Z,93.80
2018-09-15T07:50:04.104Z,94.10
2018-09-15T07:52:32.561Z,93.70
2018-09-15T07:55:01.004Z,93.70
2018-09-15T07:57:29.580Z,93.80
2018-09-15T07:59:58.148Z,94.00
2018-09-15T08:02:26.616Z,94.40
2018-09-15T08:04:55.311Z,93.40
2018-09-15T08:07:23.831Z,92.90
2018-09-15T08:09:52.332Z,91.40
2018-09-15T08:12:20.844Z,90.80
2018-09-15T08:14:49.296Z,91.70
2018-09-15T08:17:17.805Z,91.20
2018-09-15T08:19:46.256Z,91.40
2018-09-15T08:22:14.769Z,91.20
2018-09-15T08:24:43.241Z,91.30
2018-09-15T08:27:11.725Z,90.10
2018-09-15T08:29:40.268Z,90.40
2018-09-15T08:32:08.768Z,89.40
2018-09-15T08:34:37.191Z,89.50
2018-09-15T08:37:05.933Z,89.80
2018-09-15T08:39:34.403Z,89.80
2018-09-15T08:42:02.933Z,87.90
2018-09-15T08:44:31.324Z,86.30
2018-09-15T08:46:59.737Z,87.70
2018-09-15T08:49:28.316Z,87.40
2018-09-15T08:51:56.988Z,86.50
2018-09-15T08:54:25.463Z,85.40
2018-09-15T08:56:54.091Z,85.50
2018-09-15T08:59:22.675Z,84.00
2018-09-15T09:01:51.098Z,85.80
2018-09-15T09:04:19.569Z,84.30
2018-09-15T09:06:48.080Z,80.70
2018-09-15T09:09:16.492Z,80.10
2018-09-15T09:11:44.974Z,77.70
2018-09-15T09:14:13.386Z,80.30
2018-09-15T09:16:41.821Z,77.50
2018-09-15T09:19:10.289Z,74.50
2018-09-15T09:21:38.794Z,76.80
2018-09-15T09:24:07.288Z,77.50
2018-09-15T09:26:35.813Z,73.60
2018-09-15T09:29:04.227Z,75.40
2018-09-15T09:31:32.650Z,77.20
2018-09-15T09:34:01.116Z,74.40
2018-09-15T09:36:29.608Z,72.70
2018-09-15T09:38:58.144Z,70.30
2018-09-15T09:41:26.752Z,71.00
2018-09-15T09:43:55.170Z,72.40
2018-09-15T09:46:23.566Z,67.30
2018-09-15T09:48:52.094Z,67.80
2018-09-15T09:51:20.551Z,69.30
2018-09-15T09:53:49.056Z,69.90
2018-09-15T09:56:17.565Z,70.30
2018-09-15T09:58:45.975Z,73.20
2018-09-15T10:02:23.313Z,70.10
2018-09-15T10:04:52.047Z,64.40
2018-09-15T10:07:20.717Z,66.40
2018-09-15T10:09:49.193Z,61.60
2018-09-15T10:12:17.926Z,66.20
2018-09-15T10:14:46.494Z,68.20
2018-09-15T10:17:14.960Z,64.20
2018-09-15T10:19:43.429Z,62.90
2018-09-15T10:22:11.973Z,67.20
2018-09-15T10:24:40.466Z,64.60
2018-09-15T10:27:08.913Z,61.20
2018-09-15T10:29:38.444Z,61.40
2018-09-15T10:32:07.087Z,60.00
2018-09-15T10:34:35.590Z,59.60
2018-09-15T10:37:04.367Z,59.70
2018-09-15T10:39:32.801Z,60.20
2018-09-15T10:42:01.361Z,61.50
2018-09-15T10:44:29.824Z,60.60
2018-09-15T10:46:58.299Z,58.20
2018-09-15T10:49:26.757Z,60.90
2018-09-15T10:51:55.233Z,60.30
2018-09-15T10:54:23.662Z,58.40
2018-09-15T10:56:52.168Z,58.40
2018-09-15T10:59:20.740Z,58.20
2018-09-15T11:01:49.328Z,58.60
2018-09-15T11:04:18.228Z,59.00
2018-09-15T11:06:46.725Z,60.10
2018-09-15T11:09:15.180Z,58.20
2018-09-15T11:11:43.634Z,56.50
2018-09-15T11:14:12.067Z,58.80
2018-09-15T11:16:40.713Z,57.70
2018-09-15T11:19:09.213Z,58.00
2018-09-15T11:21:37.646Z,56.80
2018-09-15T11:24:06.319Z,55.30
2018-09-15T11:26:34.787Z,56.20
2018-09-15T11:29:03.292Z,58.00
2018-09-15T11:31:31.719Z,56.30
2018-09-15T11:34:00.149Z,57.50
2018-09-15T11:36:29.124Z,58.30
2018-09-15T11:38:57.612Z,59.00
2018-09-15T11:41:26.177Z,59.00
2018-09-15T11:43:54.702Z,59.80
2018-09-15T11:46:23.157Z,58.50
2018-09-15T11:48:51.632Z,59.00
2018-09-15T11:51:20.032Z,58.80
2018-09-15T11:53:48.478Z,59.10
2018-09-15T11:56:16.924Z,58.80
2018-09-15T11:58:45.358Z,58.10
2018-09-15T12:01:13.832Z,63.40
2018-09-15T12:03:42.292Z,68.00
2018-09-15T12:06:10.702Z,65.30
2018-09-15T12:08:39.206Z,68.90
2018-09-15T12:11:07.712Z,68.70
2018-09-15T12:13:36.139Z,69.50
2018-09-15T12:16:04.614Z,67.20
2018-09-15T12:18:33.155Z,62.30
2018-09-15T12:21:02.734Z,59.00
2018-09-15T12:23:31.892Z,58.10
2018-09-15T12:26:04.914Z,58.40
2018-09-15T12:28:33.333Z,58.40
2018-09-15T12:31:01.757Z,57.70
2018-09-15T12:33:30.241Z,58.20
2018-09-15T12:35:58.693Z,59.00
2018-09-15T12:38:27.141Z,57.30
2018-09-15T12:40:55.572Z,56.20
2018-09-15T12:43:24.618Z,57.30
2018-09-15T12:45:53.191Z,60.10
2018-09-15T12:48:21.647Z,60.70
2018-09-15T12:50:50.199Z,60.30
2018-09-15T12:53:18.655Z,62.80
2018-09-15T12:55:47.095Z,63.00
2018-09-15T12:58:15.545Z,64.00
2018-09-15T13:00:44.158Z,63.80
2018-09-15T13:03:12.580Z,63.90
2018-09-15T13:05:41.076Z,61.50
2018-09-15T13:08:09.534Z,62.00
2018-09-15T13:10:38.130Z,65.50
2018-09-15T13:13:06.633Z,63.80
2018-09-15T13:15:35.124Z,65.00
2018-09-15T13:18:03.535Z,64.90
2018-09-15T13:20:32.153Z,65.00
2018-09-15T13:23:00.637Z,65.50
2018-09-15T13:25:29.785Z,66.40
2018-09-15T13:27:58.322Z,65.50
2018-09-15T13:30:26.794Z,65.50
2018-09-15T13:32:55.273Z,66.20
2018-09-15T13:35:23.694Z,67.20
2018-09-15T13:37:52.163Z,66.50
2018-09-15T13:40:20.650Z,67.60
2018-09-15T13:42:49.149Z,67.50
2018-09-15T13:45:17.634Z,66.70
2018-09-15T13:47:46.090Z,62.50
2018-09-15T13:50:14.543Z,64.60
2018-09-15T13:52:43.126Z,62.80
2018-09-15T13:55:11.561Z,60.90
2018-09-15T13:57:40.015Z,59.70
2018-09-15T14:00:08.573Z,60.80
2018-09-15T14:02:41.341Z,59.20
2018-09-15T14:05:10.908Z,59.60
2018-09-15T14:07:39.512Z,58.70
2018-09-15T14:10:08.236Z,59.90
2018-09-15T14:12:36.740Z,58.80
2018-09-15T14:15:05.665Z,62.80
2018-09-15T14:17:34.256Z,66.40
2018-09-15T14:20:03.356Z,65.00
2018-09-15T14:22:31.977Z,66.10
2018-09-15T14:25:00.400Z,67.30
2018-09-15T14:27:29.044Z,67.00
2018-09-15T14:29:57.557Z,68.30
2018-09-15T14:32:26.188Z,67.70
2018-09-15T14:34:54.730Z,67.50
2018-09-15T14:37:24.065Z,67.40
2018-09-15T14:39:52.583Z,67.00
2018-09-15T14:42:21.016Z,67.70
2018-09-15T14:44:49.507Z,65.40
2018-09-15T14:47:18.340Z,64.50
2018-09-15T14:49:46.858Z,66.40
2018-09-15T14:52:15.295Z,64.70
2018-09-15T14:54:43.805Z,65.10
2018-09-15T14:57:12.208Z,65.20
2018-09-15T14:59:40.843Z,65.80
2018-09-15T15:02:09.453Z,66.60
2018-09-15T15:04:37.925Z,66.60
2018-09-15T15:07:06.471Z,66.80
2018-09-15T15:09:34.880Z,69.10
2018-09-15T15:12:03.334Z,67.70
2018-09-15T15:14:31.935Z,67.90
2018-09-15T15:17:00.432Z,69.70
2018-09-15T15:19:28.911Z,67.00
2018-09-15T15:21:57.371Z,69.40
2018-09-15T15:24:25.946Z,69.50
2018-09-15T15:26:54.510Z,68.80
2018-09-15T15:29:22.956Z,68.70
2018-09-15T15:31:51.416Z,69.70
2018-09-15T15:34:19.888Z,69.00
2018-09-15T15:36:48.403Z,68.90
2018-09-15T15:39:16.814Z,68.40
2018-09-15T15:41:45.308Z,69.30
2018-09-15T15:44:13.829Z,70.30
2018-09-15T15:46:42.329Z,69.40
2018-09-15T15:49:11.566Z,69.70
2018-09-15T15:51:40.546Z,69.20
2018-09-15T15:54:09.002Z,70.80
2018-09-15T15:56:37.601Z,70.20
2018-09-15T15:59:06.274Z,70.50
2018-09-15T16:01:34.787Z,71.80
2018-09-15T16:04:03.432Z,71.30
2018-09-15T16:06:31.903Z,72.40
2018-09-15T16:09:00.544Z,72.00
2018-09-15T16:11:29.417Z,71.60
2018-09-15T16:13:58.019Z,72.50
2018-09-15T16:16:26.456Z,73.00
2018-09-15T16:18:54.859Z,73.80
2018-09-15T16:21:23.615Z,73.70
2018-09-15T16:23:52.402Z,73.40
2018-09-15T16:26:20.981Z,73.80
2018-09-15T16:28:49.924Z,73.80
2018-09-15T16:31:18.712Z,73.30
2018-09-15T16:33:47.414Z,74.50
2018-09-15T16:36:16.851Z,75.50
2018-09-15T16:38:45.768Z,74.20
2018-09-15T16:41:14.548Z,74.40
2018-09-15T16:43:42.957Z,73.60
2018-09-15T16:46:11.400Z,75.00
2018-09-15T16:48:39.973Z,74.70
2018-09-15T16:51:08.639Z,76.80
2018-09-15T16:53:37.096Z,75.50
2018-09-15T16:56:05.520Z,76.00
2018-09-15T16:58:35.101Z,75.60
2018-09-15T17:01:03.807Z,76.30
2018-09-15T17:03:33.003Z,75.30
2018-09-15T17:06:01.430Z,76.50
2018-09-15T17:08:30.165Z,75.10
2018-09-15T17:10:58.950Z,78.30
2018-09-15T17:13:27.368Z,79.30
2018-09-15T17:15:55.832Z,79.60
2018-09-15T17:18:24.248Z,79.90
2018-09-15T17:20:52.654Z,79.60
2018-09-15T17:23:21.154Z,80.60
2018-09-15T17:25:49.604Z,82.50
2018-09-15T17:28:18.022Z,83.00
2018-09-15T17:30:46.489Z,84.50
2018-09-15T17:33:14.939Z,85.30
2018-09-15T17:35:43.337Z,85.70
2018-09-15T17:38:11.957Z,85.60
2018-09-15T17:40:40.425Z,86.20
2018-09-15T17:43:08.828Z,87.00
2018-09-15T17:45:37.434Z,87.00
2018-09-15T17:48:06.241Z,87.70
2018-09-15T17:50:34.722Z,88.00
2018-09-15T17:53:03.151Z,87.80
2018-09-15T17:55:32.258Z,88.40
2018-09-15T17:58:00.882Z,88.90
2018-09-15T18:00:29.405Z,89.20
2018-09-15T18:02:57.800Z,89.50
2018-09-15T18:05:26.454Z,88.50
2018-09-15T18:07:54.875Z,88.50
2018-09-15T18:10:23.477Z,88.60
2018-09-15T18:12:51.970Z,89.60
2018-09-15T18:15:20.384Z,89.60
2018-09-15T18:17:48.802Z,90.10
2018-09-15T18:20:17.248Z,90.10
2018-09-15T18:22:45.669Z,90.20
2018-09-15T18:25:14.590Z,90.20
2018-09-15T18:27:42.995Z,90.40
2018-09-15T18:30:11.416Z,90.40
2018-09-15T18:32:39.843Z,90.80
2018-09-15T18:35:08.315Z,91.00
2018-09-15T18:37:36.780Z,91.10
2018-09-15T18:40:05.307Z,91.50
2018-09-15T18:42:33.726Z,91.70
2018-09-15T18:45:02.266Z,92.00
2018-09-15T18:47:30.725Z,92.20
2018-09-15T18:49:59.198Z,92.30
2018-09-15T18:52:27.617Z,92.60
2018-09-15T18:54:56.303Z,92.60
2018-09-15T18:57:24.776Z,92.70
2018-09-15T18:59:53.797Z,92.90
2018-09-15T19:02:22.310Z,92.60
2018-09-15T19:04:51.234Z,92.80
2018-09-15T19:07:19.982Z,92.90
2018-09-15T19:09:48.890Z,93.10
2018-09-15T19:12:18.237Z,93.00
2018-09-15T19:14:46.800Z,93.00
2018-09-15T19:17:15.304Z,93.20
2018-09-15T19:19:43.721Z,93.30
2018-09-15T19:22:12.180Z,93.20
2018-09-15T19:24:40.628Z,93.30
2018-09-15T19:27:09.026Z,93.40
2018-09-15T19:29:37.520Z,93.40
2018-09-15T19:32:06.118Z,93.40
2018-09-15T19:34:34.798Z,93.40
2018-09-15T19:37:03.301Z,93.60
2018-09-15T19:39:31.740Z,93.70
2018-09-15T19:42:00.253Z,93.60
2018-09-15T19:44:28.686Z,93.80
2018-09-15T19:46:57.202Z,93.80
2018-09-15T19:49:25.655Z,93.80
2018-09-15T19:51:54.103Z,94.00
2018-09-15T19:54:22.578Z,93.90
2018-09-15T19:56:51.075Z,93.90
2018-09-15T19:59:19.694Z,93.90
2018-09-15T20:01:48.044Z,94.00
2018-09-15T20:04:16.458Z,94.10
2018-09-15T20:06:44.891Z,94.20
2018-09-15T20:09:13.295Z,94.20
2018-09-15T20:11:41.724Z,94.20
2018-09-15T20:14:10.307Z,94.20
2018-09-15T20:16:37.693Z,94.40
2018-09-15T20:19:05.082Z,94.50
2018-09-15T20:21:32.379Z,94.50
2018-09-15T20:24:00.869Z,94.60
2018-09-15T20:26:29.883Z,94.50
2018-09-15T20:28:58.418Z,94.40
2018-09-15T20:31:26.865Z,94.50
2018-09-15T20:33:55.301Z,94.50
2018-09-15T20:36:23.757Z,95.10
2018-09-15T20:38:53.089Z,95.00
2018-09-15T20:41:21.511Z,94.90
2018-09-15T20:43:49.979Z,94.90
2018-09-15T20:46:18.411Z,95.00
2018-09-15T20:48:46.831Z,95.10
2018-09-15T20:51:15.307Z,95.20
2018-09-15T20:53:43.744Z,95.20
2018-09-15T20:56:12.241Z,95.10
2018-09-15T20:58:40.687Z,95.20
2018-09-15T21:01:09.178Z,95.20
2018-09-15T21:03:37.619Z,95.00
2018-09-15T21:06:06.204Z,95.20
2018-09-15T21:08:34.725Z,95.30
2018-09-15T21:11:03.132Z,95.30
2018-09-15T21:13:31.584Z,95.30
2018-09-15T21:16:00.128Z,95.40
2018-09-15T21:18:28.503Z,95.30
2018-09-15T21:20:57.057Z,95.40
2018-09-15T21:23:25.638Z,95.30
2018-09-15T21:25:54.188Z,95.50
2018-09-15T21:28:23.312Z,95.40
2018-09-15T21:30:51.787Z,95.60
2018-09-15T21:33:20.302Z,95.50
2018-09-15T21:35:48.885Z,95.70
2018-09-15T21:38:17.720Z,95.70
2018-09-15T21:40:46.183Z,95.80
2018-09-15T21:43:14.685Z,95.90
2018-09-15T21:45:43.118Z,95.80
2018-09-15T21:48:11.653Z,95.90
2018-09-15T21:50:40.119Z,95.90
2018-09-15T21:53:08.589Z,95.90
2018-09-15T21:55:37.023Z,95.90
2018-09-15T21:58:05.745Z,96.20
2018-09-15T22:00:34.304Z,96.10
2018-09-15T22:03:02.730Z,95.90
2018-09-15T22:05:31.185Z,96.10
2018-09-15T22:07:59.639Z,96.20
2018-09-15T22:10:28.033Z,96.20
2018-09-15T22:12:56.540Z,96.20
2018-09-15T22:15:25.949Z,96.10
2018-09-15T22:17:55.743Z,96.20
2018-09-15T22:20:24.208Z,96.60
2018-09-15T22:22:52.717Z,96.60
2018-09-15T22:25:21.192Z,96.40
2018-09-15T22:27:49.838Z,96.50
2018-09-15T22:30:18.454Z,96.30
2018-09-15T22:32:46.924Z,96.60
2018-09-15T22:35:15.419Z,96.60
2018-09-15T22:37:43.858Z,96.40
2018-09-15T22:40:12.377Z,96.30
2018-09-15T22:42:40.868Z,96.30
2018-09-15T22:45:09.279Z,96.40
2018-09-15T22:47:37.769Z,96.50
2018-09-15T22:50:06.329Z,96.50
2018-09-15T22:52:34.780Z,96.60
2018-09-15T22:55:03.728Z,96.60
2018-09-15T22:57:32.245Z,96.70
2018-09-15T23:00:00.701Z,96.70
2018-09-15T23:02:29.392Z,96.70
2018-09-15T23:04:57.795Z,96.70
2018-09-15T23:07:26.314Z,96.70
2018-09-15T23:09:54.758Z,96.60
2018-09-15T23:12:23.248Z,96.90
2018-09-15T23:14:51.688Z,96.80
2018-09-15T23:17:20.202Z,96.90
2018-09-15T23:19:48.592Z,96.90
2018-09-15T23:22:17.037Z,96.90
2018-09-15T23:24:45.450Z,96.80
2018-09-15T23:27:13.903Z,96.80
2018-09-15T23:29:42.317Z,96.80
2018-09-15T23:32:10.777Z,96.80
2018-09-15T23:34:39.317Z,96.70
2018-09-15T23:37:07.735Z,96.80
2018-09-15T23:39:36.183Z,96.50
2018-09-15T23:42:05.209Z,96.90
2018-09-15T23:44:33.659Z,97.00
2018-09-15T23:47:02.768Z,96.90
2018-09-15T23:49:31.188Z,96.90
2018-09-15T23:51:59.656Z,96.80
2018-09-15T23:54:28.203Z,96.70
2018-09-15T23:56:56.700Z,97.00
2018-09-15T23:59:25.161Z,97.10
